createdAt,value
2023-04-13T00:01:12.069Z,99353.59
2023-04-13T00:03:43.598Z,99363.28
2023-04-13T00:06:15.502Z,99363.63
2023-04-13T00:08:46.985Z,99345.38
2023-04-13T00:11:18.845Z,99340.56
2023-04-13T00:13:50.315Z,99358.22
2023-04-13T00:16:21.859Z,99354.66
2023-04-13T00:18:53.326Z,99344.53
2023-04-13T00:21:25.076Z,99353.28
2023-04-13T00:23:56.804Z,99342.53
2023-04-13T00:26:28.552Z,99345.13
2023-04-13T00:29:00.028Z,99349.44
2023-04-13T00:31:31.582Z,99345.41
2023-04-13T00:34:03.099Z,99345.88
2023-04-13T00:36:34.569Z,99357.44
2023-04-13T00:39:06.029Z,99366.66
2023-04-13T00:41:37.860Z,99374.72
2023-04-13T00:44:09.336Z,99380.28
2023-04-13T00:46:41.163Z,99391.94
2023-04-13T00:49:12.724Z,99400.13
2023-04-13T00:51:44.209Z,99402.19
2023-04-13T00:54:15.688Z,99406.81
2023-04-13T00:56:47.515Z,99419.97
2023-04-13T00:59:19.004Z,99420.91
2023-04-13T01:01:51.089Z,99428.28
2023-04-13T01:04:22.690Z,99430.84
2023-04-13T01:06:54.382Z,99443.50
2023-04-13T01:09:25.853Z,99447.56
2023-04-13T01:11:57.715Z,99445.56
2023-04-13T01:14:29.181Z,99452.84
2023-04-13T01:17:01.000Z,99444.19
2023-04-13T01:19:32.477Z,99434.16
2023-04-13T01:22:04.289Z,99457.22
2023-04-13T01:24:35.744Z,99467.50
2023-04-13T01:27:07.578Z,99466.91
2023-04-13T01:29:39.029Z,99469.56
2023-04-13T01:32:10.843Z,99495.13
2023-04-13T01:34:42.324Z,99499.06
2023-04-13T01:37:14.306Z,99499.06
2023-04-13T01:39:46.660Z,99497.44
2023-04-13T01:42:19.669Z,99490.75
2023-04-13T01:44:51.148Z,99502.75
2023-04-13T01:47:23.061Z,99508.16
2023-04-13T01:49:54.575Z,99514.72
2023-04-13T01:52:26.406Z,99512.41
2023-04-13T01:54:57.870Z,99518.50
2023-04-13T01:57:29.391Z,99518.63
2023-04-13T02:00:00.865Z,99527.59
2023-04-13T02:02:32.437Z,99525.97
2023-04-13T02:05:03.990Z,99527.81
2023-04-13T02:07:35.504Z,99524.00
2023-04-13T02:10:07.001Z,99533.19
2023-04-13T02:12:38.771Z,99535.19
2023-04-13T02:15:10.234Z,99536.28
2023-04-13T02:17:42.293Z,99534.84
2023-04-13T02:20:13.921Z,99535.84
2023-04-13T02:22:45.735Z,99537.09
2023-04-13T02:25:17.199Z,99536.75
2023-04-13T02:27:49.131Z,99526.16
2023-04-13T02:30:20.636Z,99528.81
2023-04-13T02:32:52.466Z,99535.50
2023-04-13T02:35:23.981Z,99535.59
2023-04-13T02:37:55.818Z,99536.03
2023-04-13T02:40:27.724Z,99541.56
2023-04-13T02:42:59.186Z,99544.22
2023-04-13T02:45:30.742Z,99541.78
2023-04-13T02:48:02.262Z,99549.59
2023-04-13T02:50:33.761Z,99546.53
2023-04-13T02:53:05.244Z,99544.91
2023-04-13T02:55:37.042Z,99551.69
2023-04-13T02:58:08.504Z,99548.66
2023-04-13T03:00:40.006Z,99547.13
2023-04-13T03:03:11.564Z,99549.06
2023-04-13T03:05:43.426Z,99559.88
2023-04-13T03:08:14.889Z,99559.94
2023-04-13T03:10:46.742Z,99560.59
2023-04-13T03:13:18.225Z,99561.19
2023-04-13T03:15:50.084Z,99573.63
2023-04-13T03:18:21.536Z,99563.25
2023-04-13T03:20:53.168Z,99573.19
2023-04-13T03:23:24.630Z,99568.09
2023-04-13T03:25:56.450Z,99571.78
2023-04-13T03:28:27.921Z,99568.91
2023-04-13T03:30:59.714Z,99571.56
2023-04-13T03:33:31.303Z,99567.66
2023-04-13T03:36:02.799Z,99565.59
2023-04-13T03:38:34.268Z,99575.38
2023-04-13T03:41:06.144Z,99571.47
2023-04-13T03:43:37.640Z,99570.09
2023-04-13T03:46:09.162Z,99571.69
2023-04-13T03:48:40.649Z,99568.91
2023-04-13T03:51:12.458Z,99573.44
2023-04-13T03:53:43.927Z,99586.97
2023-04-13T03:56:16.765Z,99590.19
2023-04-13T03:58:48.234Z,99587.56
2023-04-13T04:01:19.728Z,99590.78
2023-04-13T04:03:51.361Z,99596.53
2023-04-13T04:06:23.030Z,99611.38
2023-04-13T04:08:54.510Z,99604.84
2023-04-13T04:11:26.138Z,99603.38
2023-04-13T04:13:57.819Z,99615.84
2023-04-13T04:16:29.538Z,99619.31
2023-04-13T04:19:01.046Z,99614.47
2023-04-13T04:21:32.533Z,99619.97
2023-04-13T04:24:04.016Z,99622.84
2023-04-13T04:26:35.507Z,99619.88
2023-04-13T04:29:06.986Z,99622.16
2023-04-13T04:31:38.666Z,99623.03
2023-04-13T04:34:10.196Z,99635.59
2023-04-13T04:36:42.074Z,99651.25
2023-04-13T04:39:13.562Z,99647.00
2023-04-13T04:41:45.327Z,99646.13
2023-04-13T04:44:16.855Z,99633.28
2023-04-13T04:46:48.713Z,99625.25
2023-04-13T04:49:20.199Z,99626.06
2023-04-13T04:51:51.979Z,99633.41
2023-04-13T04:54:23.443Z,99627.97
2023-04-13T04:56:55.228Z,99633.06
2023-04-13T04:59:26.722Z,99637.53
2023-04-13T05:01:58.665Z,99635.03
2023-04-13T05:04:30.144Z,99629.47
2023-04-13T05:07:01.623Z,99630.88
2023-04-13T05:09:33.069Z,99619.34
2023-04-13T05:12:04.855Z,99616.06
2023-04-13T05:14:36.328Z,99639.50
2023-04-13T05:17:08.127Z,99653.50
2023-04-13T05:19:39.589Z,99654.06
2023-04-13T05:22:11.496Z,99646.88
2023-04-13T05:24:42.939Z,99658.06
2023-04-13T05:27:14.634Z,99663.13
2023-04-13T05:29:47.602Z,99657.63
2023-04-13T05:32:19.694Z,99658.38
2023-04-13T05:34:51.166Z,99669.84
2023-04-13T05:37:22.996Z,99661.69
2023-04-13T05:39:54.474Z,99657.63
2023-04-13T05:42:26.260Z,99675.81
2023-04-13T05:44:57.709Z,99679.47
2023-04-13T05:47:29.245Z,99683.41
2023-04-13T05:50:00.723Z,99689.22
2023-04-13T05:52:32.197Z,99690.69
2023-04-13T05:55:03.673Z,99687.66
2023-04-13T05:57:35.143Z,99687.72
2023-04-13T06:00:06.935Z,99690.00
2023-04-13T06:02:38.534Z,99706.06
2023-04-13T06:05:10.380Z,99708.50
2023-04-13T06:07:41.851Z,99719.22
2023-04-13T06:10:13.713Z,99723.59
2023-04-13T06:12:45.145Z,99725.22
2023-04-13T06:15:17.005Z,99715.13
2023-04-13T06:17:48.486Z,99720.72
2023-04-13T06:20:20.256Z,99717.25
2023-04-13T06:22:51.713Z,99726.50
2023-04-13T06:25:23.522Z,99727.03
2023-04-13T06:27:54.971Z,99729.59
2023-04-13T06:30:26.778Z,99737.44
2023-04-13T06:32:58.307Z,99736.66
2023-04-13T06:35:29.826Z,99739.91
2023-04-13T06:38:01.286Z,99754.91
2023-04-13T06:40:32.779Z,99745.78
2023-04-13T06:43:04.216Z,99760.56
2023-04-13T06:45:35.673Z,99767.81
2023-04-13T06:48:07.178Z,99777.97
2023-04-13T06:50:39.255Z,99775.34
2023-04-13T06:53:10.698Z,99784.63
2023-04-13T06:55:42.396Z,99788.50
2023-04-13T06:58:13.845Z,99785.63
2023-04-13T07:00:45.407Z,99792.41
2023-04-13T07:03:17.099Z,99793.22
2023-04-13T07:05:49.013Z,99798.94
2023-04-13T07:08:20.452Z,99794.09
2023-04-13T07:10:51.934Z,99793.41
2023-04-13T07:13:23.395Z,99783.94
2023-04-13T07:15:55.096Z,99783.19
2023-04-13T07:18:26.539Z,99785.66
2023-04-13T07:20:58.360Z,99785.56
2023-04-13T07:23:29.804Z,99791.28
2023-04-13T07:26:01.801Z,99800.63
2023-04-13T07:28:33.282Z,99798.19
2023-04-13T07:31:05.145Z,99795.66
2023-04-13T07:33:36.614Z,99793.56
2023-04-13T07:36:08.072Z,99798.66
2023-04-13T07:38:39.561Z,99802.22
2023-04-13T07:41:11.540Z,99816.66
2023-04-13T07:43:42.982Z,99821.59
2023-04-13T07:46:14.456Z,99813.72
2023-04-13T07:48:45.932Z,99811.66
2023-04-13T07:51:17.825Z,99820.31
2023-04-13T07:53:49.617Z,99818.38
2023-04-13T07:56:21.087Z,99815.28
2023-04-13T07:58:52.907Z,99818.59
2023-04-13T08:01:24.366Z,99810.22
2023-04-13T08:03:56.343Z,99815.03
2023-04-13T08:06:27.922Z,99818.97
2023-04-13T08:08:59.958Z,99826.09
2023-04-13T08:11:31.514Z,99835.63
2023-04-13T08:14:02.988Z,99831.44
2023-04-13T08:16:34.590Z,99827.97
2023-04-13T08:19:06.482Z,99835.63
2023-04-13T08:21:37.940Z,99841.09
2023-04-13T08:24:09.729Z,99849.72
2023-04-13T08:26:41.257Z,99852.25
2023-04-13T08:29:13.054Z,99855.38
2023-04-13T08:31:44.550Z,99859.25
2023-04-13T08:34:16.364Z,99851.97
2023-04-13T08:36:47.922Z,99856.78
2023-04-13T08:39:19.730Z,99854.69
2023-04-13T08:41:51.166Z,99860.97
2023-04-13T08:44:22.883Z,99854.31
2023-04-13T08:46:54.354Z,99844.59
2023-04-13T08:49:26.158Z,99855.75
2023-04-13T08:51:57.608Z,99856.22
2023-04-13T08:54:29.086Z,99862.13
2023-04-13T08:57:00.540Z,99861.00
2023-04-13T08:59:32.007Z,99857.22
2023-04-13T09:02:03.558Z,99856.59
2023-04-13T09:04:35.246Z,99858.69
2023-04-13T09:07:06.907Z,99865.50
2023-04-13T09:09:38.729Z,99862.78
2023-04-13T09:12:10.219Z,99860.19
2023-04-13T09:14:42.044Z,99875.13
2023-04-13T09:17:13.560Z,99859.09
2023-04-13T09:19:45.360Z,99879.66
2023-04-13T09:22:16.847Z,99871.91
2023-04-13T09:24:48.320Z,99873.63
2023-04-13T09:27:19.808Z,99873.78
2023-04-13T09:29:51.541Z,99888.19
2023-04-13T09:32:23.208Z,99875.88
2023-04-13T09:34:55.081Z,99881.84
2023-04-13T09:37:26.873Z,99878.84
2023-04-13T09:39:58.339Z,99880.59
2023-04-13T09:42:29.794Z,99878.91
2023-04-13T09:45:01.258Z,99879.06
2023-04-13T09:47:32.748Z,99883.63
2023-04-13T09:50:04.213Z,99885.19
2023-04-13T09:52:35.666Z,99882.16
2023-04-13T09:55:07.105Z,99872.44
2023-04-13T09:57:39.048Z,99877.16
2023-04-13T10:00:10.487Z,99879.66
2023-04-13T10:02:42.478Z,99882.72
2023-04-13T10:05:14.208Z,99877.69
2023-04-13T10:07:46.045Z,99880.13
2023-04-13T10:10:17.487Z,99873.00
2023-04-13T10:12:49.277Z,99888.34
2023-04-13T10:15:20.769Z,99887.16
2023-04-13T10:17:52.518Z,99889.63
2023-04-13T10:20:25.236Z,99894.09
2023-04-13T10:22:57.822Z,99893.66
2023-04-13T10:25:33.874Z,99898.66
2023-04-13T10:28:06.605Z,99894.50
2023-04-13T10:30:38.048Z,99895.19
2023-04-13T10:33:09.961Z,99892.22
2023-04-13T10:35:43.374Z,99902.97
2023-04-13T10:38:15.463Z,99894.75
2023-04-13T10:40:46.922Z,99890.13
2023-04-13T10:43:18.958Z,99900.91
2023-04-13T10:45:50.400Z,99902.41
2023-04-13T10:48:22.009Z,99896.81
2023-04-13T10:50:53.532Z,99908.16
2023-04-13T10:53:26.720Z,99917.78
2023-04-13T10:55:58.493Z,99906.66
2023-04-13T10:58:32.589Z,99921.03
2023-04-13T11:01:04.350Z,99913.97
2023-04-13T11:03:35.879Z,99919.75
2023-04-13T11:06:07.361Z,99925.97
2023-04-13T11:08:39.129Z,99923.59
2023-04-13T11:11:14.972Z,99920.31
2023-04-13T11:13:46.994Z,99922.97
2023-04-13T11:16:18.471Z,99930.53
2023-04-13T11:18:50.255Z,99929.19
2023-04-13T11:21:21.911Z,99925.84
2023-04-13T11:23:53.359Z,99932.78
2023-04-13T11:26:24.830Z,99925.66
2023-04-13T11:28:56.279Z,99938.25
2023-04-13T11:31:28.157Z,99939.91
2023-04-13T11:33:59.892Z,99929.66
2023-04-13T11:36:31.544Z,99934.13
2023-04-13T11:39:02.985Z,99926.00
2023-04-13T11:41:34.454Z,99936.25
2023-04-13T11:44:05.900Z,99935.09
2023-04-13T11:46:37.426Z,99938.09
2023-04-13T11:49:08.912Z,99935.94
2023-04-13T11:51:40.777Z,99937.25
2023-04-13T11:54:12.229Z,99942.53
2023-04-13T11:56:43.698Z,99938.09
2023-04-13T11:59:15.145Z,99940.41
2023-04-13T12:01:50.337Z,99946.25
2023-04-13T12:04:24.884Z,99945.84
2023-04-13T12:06:57.390Z,99947.50
2023-04-13T12:09:54.700Z,99933.50
2023-04-13T12:15:09.975Z,99931.09
2023-04-13T12:17:49.998Z,99935.16
2023-04-13T12:20:25.155Z,99938.88
2023-04-13T12:23:06.998Z,99932.66
2023-04-13T12:25:47.600Z,99946.94
2023-04-13T12:28:19.086Z,99939.97
2023-04-13T12:30:50.725Z,99955.56
2023-04-13T12:33:22.181Z,99938.91
2023-04-13T12:35:53.946Z,99939.44
2023-04-13T12:38:25.409Z,99935.94
2023-04-13T12:40:56.956Z,99937.81
2023-04-13T12:43:28.405Z,99939.13
2023-04-13T12:46:00.191Z,99945.31
2023-04-13T12:48:31.695Z,99952.56
2023-04-13T12:51:03.179Z,99952.59
2023-04-13T12:53:34.644Z,99938.53
2023-04-13T12:56:06.118Z,99939.34
2023-04-13T12:58:37.616Z,99937.66
2023-04-13T13:01:09.517Z,99938.28
2023-04-13T13:03:41.108Z,99943.75
2023-04-13T13:06:12.936Z,99944.53
2023-04-13T13:08:44.379Z,99943.44
2023-04-13T13:11:16.152Z,99939.38
2023-04-13T13:13:47.575Z,99944.47
2023-04-13T13:16:19.478Z,99945.00
2023-04-13T13:18:51.582Z,99941.38
2023-04-13T13:21:23.343Z,99938.34
2023-04-13T13:23:54.854Z,99934.38
2023-04-13T13:26:30.543Z,99926.13
2023-04-13T13:29:11.462Z,99922.72
2023-04-13T13:31:43.308Z,99932.22
2023-04-13T13:34:15.119Z,99934.94
2023-04-13T13:36:46.615Z,99935.44
2023-04-13T13:39:18.620Z,99941.03
2023-04-13T13:41:50.074Z,99944.22
2023-04-13T13:44:21.952Z,99950.84
2023-04-13T13:46:53.451Z,99946.31
2023-04-13T13:49:24.942Z,99945.84
2023-04-13T13:51:56.394Z,99941.72
2023-04-13T13:54:28.198Z,99941.47
2023-04-13T13:56:59.646Z,99945.50
2023-04-13T13:59:31.145Z,99939.75
2023-04-13T14:02:02.709Z,99946.06
2023-04-13T14:04:34.633Z,99952.50
2023-04-13T14:07:06.174Z,99959.47
2023-04-13T14:09:38.005Z,99953.75
2023-04-13T14:12:09.445Z,99963.91
2023-04-13T14:14:41.225Z,99963.00
2023-04-13T14:17:12.668Z,99964.19
2023-04-13T14:19:44.518Z,99959.63
2023-04-13T14:22:15.990Z,99953.53
2023-04-13T14:24:47.808Z,99957.72
2023-04-13T14:27:19.265Z,99956.84
2023-04-13T14:29:51.035Z,99962.53
2023-04-13T14:32:22.541Z,99961.47
2023-04-13T14:34:54.248Z,99970.34
2023-04-13T14:37:25.720Z,99972.50
2023-04-13T14:39:57.533Z,99969.50
2023-04-13T14:42:28.975Z,99960.97
2023-04-13T14:45:00.988Z,99953.81
2023-04-13T14:47:32.633Z,99957.78
2023-04-13T14:50:04.712Z,99948.72
2023-04-13T14:52:36.397Z,99958.75
2023-04-13T14:55:08.212Z,99961.44
2023-04-13T14:57:39.676Z,99978.75
2023-04-13T15:00:11.610Z,99978.06
2023-04-13T15:02:43.267Z,99972.63
2023-04-13T15:05:15.204Z,99976.59
2023-04-13T15:07:46.680Z,99987.28
2023-04-13T15:10:18.469Z,99978.66
2023-04-13T15:12:49.916Z,99991.00
2023-04-13T15:15:21.716Z,99985.34
2023-04-13T15:17:53.320Z,99996.28
2023-04-13T15:20:25.062Z,100006.59
2023-04-13T15:22:56.542Z,100005.50
2023-04-13T15:25:28.229Z,99997.44
2023-04-13T15:27:59.661Z,99994.13
2023-04-13T15:30:31.103Z,99996.81
2023-04-13T15:33:02.735Z,100001.19
2023-04-13T15:35:34.310Z,100003.34
2023-04-13T15:38:05.763Z,100016.78
2023-04-13T15:40:37.276Z,100004.97
2023-04-13T15:43:08.739Z,100016.78
2023-04-13T15:45:40.350Z,100011.66
2023-04-13T15:48:11.825Z,100016.25
2023-04-13T15:50:43.288Z,100015.16
2023-04-13T15:53:14.774Z,100023.47
2023-04-13T15:55:46.630Z,100024.00
2023-04-13T15:58:18.073Z,100030.06
2023-04-13T16:00:49.850Z,100026.31
2023-04-13T16:03:21.522Z,100038.66
2023-04-13T16:05:53.478Z,100052.63
2023-04-13T16:08:24.967Z,100053.03
2023-04-13T16:10:56.745Z,100043.31
2023-04-13T16:13:34.785Z,100033.69
2023-04-13T16:16:18.648Z,100032.72
2023-04-13T16:18:50.163Z,100031.09
2023-04-13T16:21:21.623Z,100028.72
2023-04-13T16:23:53.068Z,100044.56
2023-04-13T16:26:24.518Z,100051.72
2023-04-13T16:28:55.970Z,100057.50
2023-04-13T16:31:27.803Z,100059.03
2023-04-13T16:33:59.327Z,100051.66
2023-04-13T16:36:30.797Z,100053.97
2023-04-13T16:39:02.281Z,100057.09
2023-04-13T16:41:33.808Z,100056.84
2023-04-13T16:44:05.263Z,100061.47
2023-04-13T16:46:36.805Z,100058.13
2023-04-13T16:49:08.301Z,100068.50
2023-04-13T16:51:40.052Z,100065.19
2023-04-13T16:54:11.615Z,100068.75
2023-04-13T16:56:43.153Z,100072.31
2023-04-13T16:59:14.637Z,100070.13
2023-04-13T17:01:46.166Z,100072.00
2023-04-13T17:04:17.745Z,100076.13
2023-04-13T17:06:49.299Z,100079.69
2023-04-13T17:09:20.779Z,100086.50
2023-04-13T17:11:52.303Z,100087.84
2023-04-13T17:14:23.849Z,100086.03
2023-04-13T17:16:55.656Z,100090.56
2023-04-13T17:19:27.133Z,100097.94
2023-04-13T17:21:58.949Z,100093.38
2023-04-13T17:24:30.391Z,100096.84
2023-04-13T17:27:02.249Z,100095.69
2023-04-13T17:29:33.703Z,100100.97
2023-04-13T17:32:05.516Z,100101.69
2023-04-13T17:34:37.152Z,100093.28
2023-04-13T17:37:08.638Z,100099.09
2023-04-13T17:39:40.478Z,100100.34
2023-04-13T17:42:11.948Z,100102.31
2023-04-13T17:44:43.750Z,100093.63
2023-04-13T17:47:15.205Z,100091.03
2023-04-13T17:49:46.702Z,100096.78
2023-04-13T17:52:18.182Z,100093.44
2023-04-13T17:54:50.058Z,100094.38
2023-04-13T17:57:21.536Z,100090.28
2023-04-13T17:59:53.369Z,100094.69
2023-04-13T18:02:27.345Z,100090.25
2023-04-13T18:05:00.369Z,100099.78
2023-04-13T18:07:31.852Z,100103.69
2023-04-13T18:10:03.660Z,100093.31
2023-04-13T18:12:35.128Z,100095.28
2023-04-13T18:15:06.900Z,100093.19
2023-04-13T18:17:38.413Z,100096.72
2023-04-13T18:20:10.443Z,100105.09
2023-04-13T18:22:41.956Z,100108.59
2023-04-13T18:25:13.725Z,100108.28
2023-04-13T18:27:45.198Z,100104.41
2023-04-13T18:30:17.081Z,100116.28
2023-04-13T18:32:48.626Z,100119.91
2023-04-13T18:35:20.215Z,100127.53
2023-04-13T18:37:51.693Z,100121.06
2023-04-13T18:40:23.523Z,100132.69
2023-04-13T18:42:55.003Z,100127.25
2023-04-13T18:45:26.889Z,100136.78
2023-04-13T18:47:58.435Z,100143.84
2023-04-13T18:50:29.935Z,100162.09
2023-04-13T18:53:01.804Z,100162.66
2023-04-13T18:55:33.274Z,100176.44
2023-04-13T18:58:05.163Z,100182.97
2023-04-13T19:00:36.645Z,100186.91
2023-04-13T19:03:08.646Z,100200.78
2023-04-13T19:05:40.164Z,100215.50
2023-04-13T19:08:11.886Z,100225.88
2023-04-13T19:10:43.361Z,100226.34
2023-04-13T19:13:15.359Z,100221.81
2023-04-13T19:15:46.801Z,100229.13
2023-04-13T19:18:18.306Z,100232.00
2023-04-13T19:20:49.763Z,100235.72
2023-04-13T19:23:21.539Z,100237.78
2023-04-13T19:25:53.005Z,100242.78
2023-04-13T19:28:24.878Z,100243.47
2023-04-13T19:30:56.317Z,100254.88
2023-04-13T19:33:28.169Z,100257.84
2023-04-13T19:35:59.639Z,100259.56
2023-04-13T19:38:31.113Z,100272.84
2023-04-13T19:41:02.565Z,100267.13
2023-04-13T19:43:34.057Z,100266.53
2023-04-13T19:46:05.593Z,100268.84
2023-04-13T19:48:37.450Z,100270.09
2023-04-13T19:51:08.974Z,100272.38
2023-04-13T19:53:40.996Z,100272.84
2023-04-13T19:56:12.516Z,100270.41
2023-04-13T19:58:44.321Z,100273.06
2023-04-13T20:01:15.829Z,100273.66
2023-04-13T20:03:47.742Z,100275.50
2023-04-13T20:06:19.278Z,100264.84
2023-04-13T20:08:51.136Z,100263.97
2023-04-13T20:11:22.613Z,100254.34
2023-04-13T20:13:54.469Z,100256.75
2023-04-13T20:16:25.978Z,100252.31
2023-04-13T20:18:57.874Z,100256.81
2023-04-13T20:21:29.328Z,100258.06
2023-04-13T20:24:01.220Z,100260.38
2023-04-13T20:26:32.809Z,100254.47
2023-04-13T20:29:04.609Z,100246.31
2023-04-13T20:31:36.101Z,100241.06
2023-04-13T20:34:08.162Z,100235.84
2023-04-13T20:36:39.671Z,100226.53
2023-04-13T20:39:11.504Z,100225.94
2023-04-13T20:41:42.999Z,100227.78
2023-04-13T20:44:14.618Z,100226.81
2023-04-13T20:46:46.162Z,100225.84
2023-04-13T20:49:17.668Z,100222.00
2023-04-13T20:51:49.154Z,100218.38
2023-04-13T20:54:20.680Z,100226.78
2023-04-13T20:56:52.127Z,100225.38
2023-04-13T20:59:23.972Z,100222.13
2023-04-13T21:01:55.537Z,100222.00
2023-04-13T21:04:27.575Z,100220.34
2023-04-13T21:06:59.061Z,100225.09
2023-04-13T21:09:30.549Z,100219.63
2023-04-13T21:12:02.082Z,100216.38
2023-04-13T21:14:33.599Z,100216.78
2023-04-13T21:17:05.124Z,100217.81
2023-04-13T21:19:37.932Z,100223.13
2023-04-13T21:22:09.571Z,100220.09
2023-04-13T21:24:41.386Z,100211.97
2023-04-13T21:27:12.852Z,100220.59
2023-04-13T21:29:44.767Z,100214.50
2023-04-13T21:32:16.279Z,100210.50
2023-04-13T21:34:48.120Z,100209.47
2023-04-13T21:37:19.583Z,100200.69
2023-04-13T21:39:51.373Z,100202.31
2023-04-13T21:42:22.950Z,100199.47
2023-04-13T21:44:54.873Z,100203.16
2023-04-13T21:47:26.399Z,100201.72
2023-04-13T21:49:58.130Z,100216.03
2023-04-13T21:52:29.606Z,100197.88
2023-04-13T21:55:01.439Z,100205.25
2023-04-13T21:57:32.974Z,100209.75
2023-04-13T22:00:06.387Z,100214.69
2023-04-13T22:02:38.232Z,100216.41
2023-04-13T22:05:09.796Z,100213.19
2023-04-13T22:07:43.237Z,100223.84
2023-04-13T22:10:15.418Z,100227.13
2023-04-13T22:12:46.921Z,100235.72
2023-04-13T22:15:18.733Z,100237.78
2023-04-13T22:17:50.244Z,100235.94
2023-04-13T22:20:22.149Z,100238.22
2023-04-13T22:22:53.641Z,100246.63
2023-04-13T22:25:25.513Z,100243.19
2023-04-13T22:27:57.033Z,100252.19
2023-04-13T22:30:28.583Z,100251.59
2023-04-13T22:33:00.096Z,100249.09
2023-04-13T22:35:31.696Z,100248.28
2023-04-13T22:38:03.189Z,100244.19
2023-04-13T22:40:34.663Z,100235.81
2023-04-13T22:43:06.116Z,100241.13
2023-04-13T22:45:37.949Z,100233.38
2023-04-13T22:48:09.428Z,100235.63
2023-04-13T22:50:41.193Z,100227.66
2023-04-13T22:53:12.681Z,100232.56
2023-04-13T22:55:44.330Z,100233.75
2023-04-13T23:01:01.746Z,100237.00
2023-04-13T23:03:33.441Z,100248.47
2023-04-13T23:06:04.989Z,100235.22
2023-04-13T23:08:36.475Z,100236.63
2023-04-13T23:11:07.960Z,100234.78
2023-04-13T23:13:39.682Z,100227.63
2023-04-13T23:16:11.208Z,100221.09
2023-04-13T23:18:43.096Z,100211.50
2023-04-13T23:21:14.994Z,100205.38
2023-04-13T23:23:46.867Z,100204.56
2023-04-13T23:26:18.339Z,100207.81
2023-04-13T23:28:50.376Z,100202.31
2023-04-13T23:31:21.901Z,100200.25
2023-04-13T23:33:55.061Z,100197.97
2023-04-13T23:36:26.647Z,100205.31
2023-04-13T23:38:58.708Z,100192.41
2023-04-13T23:41:30.314Z,100197.91
2023-04-13T23:44:02.153Z,100206.28
2023-04-13T23:46:33.647Z,100210.56
2023-04-13T23:49:05.328Z,100212.78
2023-04-13T23:51:36.798Z,100207.03
2023-04-13T23:54:08.616Z,100200.47
2023-04-13T23:56:40.081Z,100197.41
2023-04-13T23:59:11.849Z,100205.75
